Time;durP1;ratioP1;P1;durP2;ratioP2;P2;SDS_P1;SDS_P2;PMS_P1;PMS_P2;Temp;Humidity;BMP_temperature;BMP_pressure;BME280_temperature;BME280_humidity;BME280_pressure;Samples;Min_cycle;Max_cycle;Signal;HPM_P1;HPM_P2
2022/01/24 00:01:11;;;;;;;22.90;19.75;;;6.70;82.30;;;;;;5075536;28;20036;-52
2022/01/24 00:03:38;;;;;;;22.02;19.23;;;6.70;82.30;;;;;;5083792;28;20476;-53
2022/01/24 00:06:09;;;;;;;24.48;19.40;;;6.60;82.20;;;;;;5076108;28;20476;-55
2022/01/24 00:08:36;;;;;;;24.27;19.15;;;6.60;81.90;;;;;;5093970;28;20115;-56
2022/01/24 00:11:08;;;;;;;22.52;20.05;;;6.60;81.50;;;;;;5095164;28;20037;-53
2022/01/24 00:16:27;;;;;;;23.83;19.67;;;6.60;81.40;;;;;;5083341;28;20043;-50
2022/01/24 00:26:55;;;;;;;22.80;19.73;;;6.60;81.00;;;;;;5089662;28;20040;-52
2022/01/24 00:29:22;;;;;;;25.55;21.02;;;6.60;81.40;;;;;;5091983;28;20111;-49
2022/01/24 00:31:49;;;;;;;25.40;21.20;;;6.60;81.70;;;;;;5086018;28;20446;-53
2022/01/24 00:34:16;;;;;;;23.15;20.65;;;6.60;81.40;;;;;;5074591;28;20036;-54
2022/01/24 00:36:46;;;;;;;24.08;20.80;;;6.60;81.30;;;;;;5092222;28;20040;-54
2022/01/24 00:39:13;;;;;;;24.00;21.35;;;6.60;81.50;;;;;;5093385;28;20044;-52
2022/01/24 00:47:03;;;;;;;24.17;21.60;;;6.50;81.10;;;;;;5093024;28;20040;-49
2022/01/24 00:54:47;;;;;;;23.00;20.60;;;6.60;81.70;;;;;;5087300;28;20036;-50
2022/01/24 00:57:14;;;;;;;21.48;19.17;;;6.50;80.90;;;;;;5093084;28;20036;-54
2022/01/24 00:59:41;;;;;;;24.67;20.33;;;6.50;80.30;;;;;;5084830;28;20051;-50
2022/01/24 01:02:08;;;;;;;23.42;20.95;;;6.50;80.30;;;;;;5086829;28;20434;-49
2022/01/24 01:04:50;;;;;;;22.80;20.08;;;6.50;80.50;;;;;;5073799;28;20535;-50
2022/01/24 01:18:36;;;;;;;25.88;21.73;;;6.50;80.70;;;;;;5084656;28;20441;-50
2022/01/24 01:21:11;;;;;;;27.23;23.15;;;6.50;81.00;;;;;;5092811;28;20043;-53
2022/01/24 01:23:39;;;;;;;25.85;23.02;;;6.50;81.20;;;;;;5091345;28;20508;-51
2022/01/24 01:26:13;;;;;;;26.80;22.48;;;6.50;81.00;;;;;;5092729;28;20044;-51
2022/01/24 01:28:43;;;;;;;28.83;23.08;;;6.50;81.40;;;;;;5092041;28;20067;-53
2022/01/24 01:31:19;;;;;;;25.23;22.20;;;6.50;81.20;;;;;;5083740;28;20051;-54
2022/01/24 01:37:19;;;;;;;24.23;21.63;;;6.50;81.20;;;;;;5092582;28;20047;-49
2022/01/24 01:52:45;;;;;;;27.85;21.83;;;6.40;80.90;;;;;;5091523;28;20054;-52
2022/01/24 01:55:25;;;;;;;25.90;20.90;;;6.40;80.40;;;;;;5092674;28;20051;-47
2022/01/24 01:57:52;;;;;;;27.95;22.60;;;6.40;80.30;;;;;;5096034;28;20048;-50
2022/01/24 02:00:18;;;;;;;27.35;21.73;;;6.40;80.10;;;;;;5094656;28;20038;-51
2022/01/24 02:02:47;;;;;;;27.98;22.90;;;6.40;80.40;;;;;;5087735;28;20438;-54
2022/01/24 02:05:14;;;;;;;24.17;20.60;;;6.30;80.80;;;;;;5088005;28;20032;-52
2022/01/24 02:07:40;;;;;;;23.95;20.60;;;6.30;80.40;;;;;;5092455;28;20132;-49
2022/01/24 02:10:07;;;;;;;24.33;20.13;;;6.30;80.20;;;;;;5086680;28;20036;-52
2022/01/24 02:12:34;;;;;;;25.25;21.52;;;6.30;80.10;;;;;;5079234;28;20124;-56
2022/01/24 02:15:01;;;;;;;26.05;21.50;;;6.30;80.00;;;;;;5090899;28;20039;-51
2022/01/24 02:17:53;;;;;;;25.45;21.02;;;6.30;80.30;;;;;;5084830;28;20085;-52
2022/01/24 02:22:51;;;;;;;24.58;19.75;;;6.30;79.70;;;;;;5085284;28;20375;-52
2022/01/24 02:25:29;;;;;;;26.13;21.65;;;6.30;79.60;;;;;;5088561;28;20044;-53
2022/01/24 02:28:00;;;;;;;28.23;21.83;;;6.30;79.80;;;;;;5082373;28;20086;-52
2022/01/24 02:33:12;;;;;;;26.42;22.40;;;6.20;80.30;;;;;;5094706;28;20042;-53
2022/01/24 02:35:39;;;;;;;25.17;21.40;;;6.30;80.20;;;;;;5083982;28;20049;-54
2022/01/24 09:31:08;;;;;;;31.23;21.83;;;4.80;87.60;;;;;;5068755;28;20391;-50
2022/01/24 09:33:35;;;;;;;29.27;21.63;;;4.90;88.30;;;;;;5066527;28;20485;-46
2022/01/24 09:36:03;;;;;;;31.10;22.83;;;4.90;87.60;;;;;;5055905;28;20500;-46
2022/01/24 09:38:31;;;;;;;25.33;21.17;;;5.00;87.60;;;;;;5055076;28;20090;-48
2022/01/24 09:40:58;;;;;;;26.65;20.73;;;5.00;87.00;;;;;;5056742;28;20049;-48
2022/01/24 09:43:25;;;;;;;26.90;22.13;;;5.10;87.00;;;;;;5049100;28;20515;-50
2022/01/24 09:45:52;;;;;;;26.42;21.08;;;5.20;86.50;;;;;;5051628;28;20473;-51
2022/01/24 09:48:19;;;;;;;27.27;21.33;;;5.30;86.50;;;;;;5049912;28;20057;-45
2022/01/24 09:50:46;;;;;;;26.73;21.15;;;5.30;86.00;;;;;;5052869;28;20052;-49
2022/01/24 09:53:12;;;;;;;24.25;20.38;;;5.40;85.30;;;;;;5061748;28;20123;-51
2022/01/24 09:55:39;;;;;;;24.98;20.20;;;5.50;85.20;;;;;;5069616;28;20094;-49
2022/01/24 09:58:06;;;;;;;27.88;20.20;;;5.50;84.70;;;;;;5069177;28;20528;-48
2022/01/24 10:00:33;;;;;;;28.40;22.45;;;5.50;84.60;;;;;;5069638;28;20484;-52
2022/01/24 10:03:00;;;;;;;25.50;21.45;;;5.60;85.00;;;;;;5071532;28;20048;-52
2022/01/24 10:05:47;;;;;;;25.15;19.45;;;5.60;84.10;;;;;;5069378;28;20106;-50
2022/01/24 10:08:29;;;;;;;26.38;20.55;;;5.60;83.90;;;;;;5061640;28;20526;-50
2022/01/24 10:10:56;;;;;;;25.05;20.98;;;5.60;83.70;;;;;;5068845;28;20044;-50
2022/01/24 10:16:33;;;;;;;25.48;20.17;;;5.70;83.60;;;;;;5068606;28;20106;-49
2022/01/24 10:19:00;;;;;;;24.15;19.75;;;5.70;83.30;;;;;;5068626;28;20454;-47
2022/01/24 10:21:47;;;;;;;28.77;20.02;;;5.70;83.80;;;;;;5068708;28;20045;-52
2022/01/24 10:24:13;;;;;;;25.92;20.80;;;5.70;83.40;;;;;;5051953;28;20040;-49
2022/01/24 10:26:40;;;;;;;27.50;20.55;;;5.70;83.20;;;;;;5063813;28;20140;-50
2022/01/24 10:29:07;;;;;;;24.58;20.40;;;5.70;83.70;;;;;;5049215;28;20504;-49
2022/01/24 10:31:35;;;;;;;26.45;21.02;;;5.70;83.70;;;;;;5054353;28;20073;-49
2022/01/24 10:34:08;;;;;;;25.77;20.67;;;5.80;83.30;;;;;;5057315;28;20033;-46
2022/01/24 10:36:36;;;;;;;27.88;21.65;;;5.80;83.00;;;;;;5049774;28;20056;-48
2022/01/24 10:39:05;;;;;;;26.65;20.90;;;5.80;83.00;;;;;;5048366;28;20048;-50
2022/01/24 10:41:51;;;;;;;25.70;20.80;;;5.80;83.10;;;;;;5039595;28;20037;-46
2022/01/24 10:44:17;;;;;;;27.87;20.93;;;5.90;82.70;;;;;;5047120;28;20044;-51
2022/01/24 10:47:00;;;;;;;25.70;20.85;;;5.90;82.80;;;;;;5035424;28;20037;-50
2022/01/24 10:49:30;;;;;;;26.75;20.83;;;5.90;83.00;;;;;;5034891;28;20045;-52
2022/01/24 10:51:57;;;;;;;31.83;22.08;;;5.90;82.90;;;;;;5035292;28;20049;-51
2022/01/24 10:54:24;;;;;;;23.80;20.77;;;6.00;82.30;;;;;;5043040;28;20049;-50
2022/01/24 10:56:51;;;;;;;26.70;21.20;;;6.00;82.70;;;;;;5035400;28;20492;-50
2022/01/24 10:59:18;;;;;;;24.60;21.13;;;6.00;81.90;;;;;;5035390;28;20069;-53
2022/01/24 11:01:45;;;;;;;26.02;20.35;;;5.90;82.60;;;;;;5036594;28;20048;-48
2022/01/24 11:04:15;;;;;;;24.50;20.60;;;5.90;82.00;;;;;;5036720;28;20037;-48
2022/01/24 11:06:42;;;;;;;26.17;21.23;;;5.80;82.30;;;;;;5033679;28;20073;-47
2022/01/24 11:09:09;;;;;;;23.90;20.65;;;5.90;82.50;;;;;;5035162;28;20041;-47
2022/01/24 11:11:36;;;;;;;23.00;20.23;;;5.80;81.50;;;;;;5035227;28;20489;-47
2022/01/24 11:14:03;;;;;;;25.48;21.02;;;5.80;82.60;;;;;;5035395;28;20064;-50
2022/01/24 11:16:30;;;;;;;23.65;20.23;;;5.80;82.50;;;;;;5035550;28;20045;-48
2022/01/24 11:18:57;;;;;;;23.30;19.88;;;5.90;82.30;;;;;;5036160;28;20424;-51
2022/01/24 11:21:23;;;;;;;23.63;20.17;;;6.00;82.10;;;;;;5034993;28;20076;-50
2022/01/24 11:23:50;;;;;;;24.55;20.10;;;6.00;80.90;;;;;;5050438;28;20040;-50
2022/01/24 11:26:19;;;;;;;24.55;20.63;;;6.00;81.10;;;;;;5045648;28;20409;-49
2022/01/24 11:28:46;;;;;;;24.98;21.15;;;6.00;81.60;;;;;;5037447;28;20091;-50
2022/01/24 11:31:12;;;;;;;28.00;22.50;;;6.00;81.20;;;;;;5049718;28;20048;-47
2022/01/24 11:33:39;;;;;;;26.88;21.65;;;6.00;81.80;;;;;;5052431;28;20049;-52
2022/01/24 11:36:07;;;;;;;26.80;21.83;;;6.10;81.40;;;;;;5039449;28;20073;-50
2022/01/24 11:38:35;;;;;;;26.80;22.20;;;6.00;81.30;;;;;;5034740;28;20048;-47
2022/01/24 11:41:02;;;;;;;25.92;21.70;;;6.00;81.20;;;;;;5034575;28;20065;-50
2022/01/24 11:43:29;;;;;;;25.75;22.23;;;5.90;81.00;;;;;;5034648;28;20038;-50
2022/01/24 11:46:04;;;;;;;29.52;21.27;;;5.90;81.60;;;;;;5043185;28;20069;-48
2022/01/24 11:48:32;;;;;;;26.67;22.65;;;5.90;81.50;;;;;;5039433;28;20033;-50
2022/01/24 11:50:59;;;;;;;25.77;21.13;;;5.90;81.70;;;;;;5034545;28;20384;-50
2022/01/24 11:53:27;;;;;;;26.60;21.30;;;5.90;81.80;;;;;;5036942;28;20044;-48
2022/01/24 11:55:55;;;;;;;24.45;21.30;;;5.90;81.70;;;;;;5049673;28;20042;-51
2022/01/24 11:58:21;;;;;;;27.33;22.58;;;5.90;81.80;;;;;;5032882;28;20041;-50
2022/01/24 12:00:50;;;;;;;27.52;20.95;;;5.90;81.90;;;;;;5034422;28;20037;-50
2022/01/24 12:03:20;;;;;;;24.90;21.85;;;5.90;81.40;;;;;;5037401;28;20052;-52
2022/01/24 12:05:48;;;;;;;25.38;21.50;;;5.90;81.40;;;;;;5053756;28;20037;-48
2022/01/24 12:08:35;;;;;;;26.02;21.30;;;5.80;82.00;;;;;;5053407;28;20040;-52
2022/01/24 12:11:02;;;;;;;30.00;22.23;;;5.90;82.00;;;;;;5035359;28;20128;-52
2022/01/24 12:13:36;;;;;;;29.38;22.25;;;5.80;81.80;;;;;;5034428;28;20055;-52
2022/01/24 12:16:03;;;;;;;27.88;21.65;;;5.90;82.80;;;;;;5049250;28;20124;-47
2022/01/24 12:18:29;;;;;;;30.10;22.92;;;6.00;81.60;;;;;;5052956;28;20132;-49
2022/01/24 12:20:57;;;;;;;28.40;23.17;;;6.00;81.70;;;;;;5052258;28;20128;-49
2022/01/24 12:23:25;;;;;;;30.00;22.35;;;6.10;80.80;;;;;;5033868;28;20111;-53
2022/01/24 12:26:02;;;;;;;29.08;23.95;;;6.10;81.10;;;;;;5035298;28;20043;-49
2022/01/24 12:28:29;;;;;;;24.73;21.67;;;6.10;80.80;;;;;;5052812;28;20037;-48
2022/01/24 12:30:56;;;;;;;30.35;22.77;;;6.10;79.80;;;;;;5051352;28;20114;-46
2022/01/24 12:33:23;;;;;;;28.15;22.90;;;6.00;80.00;;;;;;5038503;28;20049;-48
2022/01/24 12:35:49;;;;;;;26.30;22.55;;;5.90;80.90;;;;;;5035637;28;20493;-48
2022/01/24 12:38:16;;;;;;;31.65;24.00;;;5.90;81.00;;;;;;5032126;28;20140;-49
2022/01/24 12:40:43;;;;;;;30.20;24.33;;;5.90;81.20;;;;;;5033467;28;20129;-47
2022/01/24 12:43:18;;;;;;;33.58;23.27;;;6.00;81.50;;;;;;5046865;28;20044;-50
2022/01/24 12:48:31;;;;;;;29.75;24.52;;;6.10;80.70;;;;;;5051038;28;20099;-52
2022/01/24 12:50:58;;;;;;;31.45;25.40;;;6.10;80.80;;;;;;5050921;28;20051;-48
2022/01/24 12:53:26;;;;;;;28.40;24.38;;;6.10;80.70;;;;;;5039547;28;20041;-50
2022/01/24 12:55:52;;;;;;;31.30;25.20;;;6.10;80.50;;;;;;5042396;28;20053;-48
2022/01/24 12:58:19;;;;;;;27.67;23.98;;;6.20;80.70;;;;;;5033174;28;20045;-48
2022/01/24 13:00:47;;;;;;;36.50;24.88;;;6.20;80.00;;;;;;5043342;28;20392;-50
2022/01/24 13:03:16;;;;;;;29.88;23.65;;;6.20;79.90;;;;;;5051103;28;20036;-52
2022/01/24 13:05:43;;;;;;;27.85;22.65;;;6.20;79.40;;;;;;5052047;28;20041;-51
2022/01/24 13:08:10;;;;;;;30.65;24.30;;;6.20;79.00;;;;;;5052100;28;20037;-49
2022/01/24 13:10:36;;;;;;;30.60;25.17;;;6.20;79.50;;;;;;5051503;28;20045;-49
2022/01/24 13:13:06;;;;;;;35.38;25.08;;;6.20;79.50;;;;;;5035830;28;20041;-48
2022/01/24 13:21:12;;;;;;;33.15;27.00;;;6.30;79.70;;;;;;5039067;28;20045;-49
2022/01/24 13:23:44;;;;;;;32.67;26.27;;;6.30;79.70;;;;;;5043570;28;20061;-49
2022/01/24 13:26:11;;;;;;;33.35;26.55;;;6.20;80.20;;;;;;5052247;28;20045;-48
2022/01/24 13:28:38;;;;;;;32.03;26.30;;;6.20;80.40;;;;;;5051304;28;20032;-48
2022/01/24 13:31:05;;;;;;;31.40;26.80;;;6.10;79.90;;;;;;5051894;28;20053;-51
2022/01/24 13:33:32;;;;;;;32.83;28.13;;;6.10;80.50;;;;;;5052373;28;20098;-52
2022/01/24 13:35:59;;;;;;;34.45;27.65;;;6.10;80.60;;;;;;5052116;28;20045;-47
2022/01/24 13:38:26;;;;;;;32.10;27.40;;;6.10;80.40;;;;;;5052140;28;20116;-50
2022/01/24 13:40:59;;;;;;;31.90;27.33;;;6.20;80.50;;;;;;5049914;28;20056;-50
2022/01/24 13:43:26;;;;;;;31.42;26.63;;;6.20;80.20;;;;;;5052079;28;20052;-51
2022/01/24 13:45:52;;;;;;;33.22;27.25;;;6.20;80.10;;;;;;5052262;28;20454;-50
2022/01/24 13:48:24;;;;;;;32.60;27.17;;;6.20;81.10;;;;;;5051781;28;20072;-51
2022/01/24 13:50:51;;;;;;;32.95;27.02;;;6.20;79.90;;;;;;5052289;28;20095;-51
2022/01/24 13:53:17;;;;;;;29.98;26.20;;;6.30;80.20;;;;;;5051269;28;20040;-51
2022/01/24 13:55:44;;;;;;;33.03;27.33;;;6.20;79.70;;;;;;5052547;28;20484;-50
2022/01/24 13:58:11;;;;;;;33.75;26.33;;;6.20;79.80;;;;;;5047583;28;20412;-49
2022/01/24 14:00:41;;;;;;;32.88;27.13;;;6.20;79.60;;;;;;5033500;28;20041;-50
2022/01/24 14:03:08;;;;;;;34.67;27.52;;;6.30;80.00;;;;;;5042812;28;20368;-48
2022/01/24 14:05:49;;;;;;;35.80;27.02;;;6.30;79.80;;;;;;5032810;28;20068;-53
2022/01/24 14:08:15;;;;;;;32.15;27.23;;;6.20;79.80;;;;;;5036496;28;20081;-48
2022/01/24 14:10:42;;;;;;;34.55;27.27;;;6.20;79.20;;;;;;5038679;28;20524;-49
2022/01/24 14:13:10;;;;;;;30.65;26.77;;;6.10;79.30;;;;;;5033059;28;20052;-51
2022/01/24 14:15:54;;;;;;;35.65;27.05;;;6.10;79.90;;;;;;5047577;28;20041;-51
2022/01/24 14:18:26;;;;;;;32.53;27.45;;;6.00;79.80;;;;;;5036336;28;20049;-52
2022/01/24 14:20:53;;;;;;;30.23;25.42;;;6.00;79.70;;;;;;5035560;28;20527;-49
2022/01/24 14:23:20;;;;;;;35.03;27.65;;;5.90;80.30;;;;;;5043653;28;20400;-54
2022/01/24 14:25:46;;;;;;;33.63;27.17;;;5.80;81.30;;;;;;5055549;28;20037;-48
2022/01/24 14:28:13;;;;;;;36.85;27.77;;;5.90;81.30;;;;;;5054292;28;20060;-50
2022/01/24 14:30:41;;;;;;;38.40;29.30;;;6.00;80.90;;;;;;5039965;28;20132;-49
2022/01/24 14:33:12;;;;;;;35.33;27.23;;;6.00;80.90;;;;;;5044518;28;20048;-51
2022/01/24 14:35:43;;;;;;;35.42;27.67;;;6.00;80.40;;;;;;5054199;28;20405;-48
2022/01/24 14:38:10;;;;;;;35.65;26.63;;;6.00;80.10;;;;;;5034824;28;61489;-49
2022/01/24 14:40:38;;;;;;;34.67;28.27;;;6.10;80.90;;;;;;5049797;28;20053;-47
2022/01/24 14:45:50;;;;;;;34.95;27.38;;;6.10;80.30;;;;;;5054784;28;20048;-48
2022/01/24 14:48:17;;;;;;;36.10;27.35;;;6.00;80.40;;;;;;5052765;28;20408;-49
2022/01/24 14:50:44;;;;;;;33.33;27.10;;;5.90;80.40;;;;;;5036380;28;20396;-49
2022/01/24 14:53:15;;;;;;;34.90;28.63;;;5.90;81.00;;;;;;5035705;28;20045;-47
2022/01/24 14:55:42;;;;;;;33.53;27.42;;;5.90;81.00;;;;;;5035371;28;20061;-50
2022/01/24 14:58:09;;;;;;;33.78;28.27;;;5.90;80.70;;;;;;5040542;28;20050;-51
2022/01/24 15:00:35;;;;;;;34.88;28.20;;;5.90;81.00;;;;;;5036304;28;20068;-48
2022/01/24 15:03:02;;;;;;;38.53;29.73;;;6.00;80.90;;;;;;5044472;28;20033;-48
2022/01/24 15:05:29;;;;;;;35.97;27.38;;;6.00;80.60;;;;;;5054904;28;20037;-49
2022/01/24 15:07:56;;;;;;;33.40;27.67;;;5.90;80.40;;;;;;5042425;28;20057;-48
2022/01/24 15:10:23;;;;;;;35.53;28.42;;;5.80;80.90;;;;;;5035430;28;20040;-48
2022/01/24 15:12:53;;;;;;;33.80;28.15;;;5.80;81.20;;;;;;5032649;28;20048;-50
2022/01/24 15:15:22;;;;;;;38.05;29.42;;;5.70;81.10;;;;;;5046116;28;20063;-48
2022/01/24 15:25:56;;;;;;;33.83;28.10;;;5.70;81.10;;;;;;5054488;28;20404;-50
2022/01/24 15:28:23;;;;;;;37.50;29.65;;;5.70;81.40;;;;;;5034930;28;20349;-51
2022/01/24 15:30:49;;;;;;;36.72;29.73;;;5.70;81.70;;;;;;5046371;28;20049;-47
2022/01/24 15:33:16;;;;;;;37.85;28.67;;;5.80;81.60;;;;;;5054005;28;20045;-50
2022/01/24 15:35:43;;;;;;;33.28;27.92;;;5.80;81.30;;;;;;5054278;28;20435;-49
2022/01/24 15:38:10;;;;;;;38.85;29.60;;;5.70;81.20;;;;;;5053934;28;20102;-52
2022/01/24 15:40:37;;;;;;;35.55;28.88;;;5.70;81.70;;;;;;5054043;28;20041;-47
2022/01/24 15:43:39;;;;;;;38.85;29.02;;;5.70;81.40;;;;;;5054118;28;20566;-48
2022/01/24 15:46:02;;;;;;;35.47;29.35;;;5.70;81.10;;;;;;5053855;28;20091;-48
2022/01/24 15:48:33;;;;;;;35.53;28.30;;;5.60;81.50;;;;;;5037706;28;20443;-51
2022/01/24 15:51:00;;;;;;;36.03;28.55;;;5.60;81.60;;;;;;5053988;28;20518;-53
2022/01/24 15:53:27;;;;;;;38.42;29.88;;;5.60;81.80;;;;;;5054092;28;20094;-50
2022/01/24 15:58:39;;;;;;;37.60;29.88;;;5.50;81.50;;;;;;5053987;28;20037;-50
2022/01/24 16:01:06;;;;;;;37.63;28.95;;;5.40;82.50;;;;;;5048333;28;20033;-51
2022/01/24 16:03:33;;;;;;;37.30;28.73;;;5.30;82.70;;;;;;5034861;28;20045;-51
2022/01/24 16:06:00;;;;;;;37.65;29.10;;;5.20;82.40;;;;;;5046376;28;20048;-50
2022/01/24 16:08:27;;;;;;;36.50;28.40;;;5.30;83.10;;;;;;5051797;28;20037;-51
2022/01/24 16:10:53;;;;;;;39.60;29.08;;;5.30;82.70;;;;;;5053280;28;20385;-49
2022/01/24 16:13:23;;;;;;;39.83;29.90;;;5.20;83.20;;;;;;5035351;28;20140;-51
2022/01/24 16:15:50;;;;;;;40.30;29.67;;;5.10;83.50;;;;;;5034128;28;20056;-50
2022/01/24 16:18:19;;;;;;;36.25;27.77;;;5.10;83.40;;;;;;5051950;28;20443;-49
2022/01/24 16:25:44;;;;;;;39.10;29.80;;;5.20;83.40;;;;;;5053256;28;20048;-48
2022/01/24 16:28:11;;;;;;;36.80;29.17;;;5.20;83.10;;;;;;5052513;28;20112;-49
2022/01/24 16:30:38;;;;;;;37.78;30.30;;;5.20;83.50;;;;;;5053094;28;20064;-50
2022/01/24 16:33:04;;;;;;;38.72;30.90;;;5.30;83.40;;;;;;5052257;28;20090;-52
2022/01/24 16:35:31;;;;;;;43.15;30.60;;;5.30;83.30;;;;;;5035321;28;20041;-53
2022/01/24 16:37:58;;;;;;;42.63;33.38;;;5.30;83.50;;;;;;5040304;28;20045;-49
2022/01/24 16:40:31;;;;;;;39.20;28.52;;;5.30;83.40;;;;;;5052806;28;20045;-51
2022/01/24 16:48:23;;;;;;;36.92;29.48;;;5.10;82.90;;;;;;5043660;28;20056;-52
2022/01/24 16:50:49;;;;;;;41.30;29.55;;;5.10;83.70;;;;;;5042269;28;20041;-48
2022/01/24 16:53:18;;;;;;;43.00;31.80;;;5.20;83.60;;;;;;5042040;28;20048;-51
2022/01/24 16:55:45;;;;;;;38.38;30.02;;;5.20;83.20;;;;;;5036970;28;20491;-49
2022/01/24 16:58:12;;;;;;;37.60;29.38;;;5.30;82.70;;;;;;5050253;28;20127;-47
2022/01/24 17:00:38;;;;;;;36.58;29.92;;;5.20;82.30;;;;;;5048851;28;20041;-50
2022/01/24 17:03:05;;;;;;;41.50;30.90;;;5.20;82.90;;;;;;5053111;28;20052;-49
2022/01/24 17:05:32;;;;;;;40.70;30.95;;;5.20;82.70;;;;;;5052607;28;20040;-52
2022/01/24 17:07:59;;;;;;;42.25;31.25;;;5.30;83.20;;;;;;5045554;28;20390;-48
2022/01/24 17:10:26;;;;;;;37.80;30.67;;;5.30;83.00;;;;;;5052723;28;20048;-49
2022/01/24 17:13:00;;;;;;;39.25;30.25;;;5.30;82.80;;;;;;5037827;28;20362;-49
2022/01/24 17:15:27;;;;;;;42.47;32.35;;;5.30;83.10;;;;;;5034526;28;20116;-50
2022/01/24 17:17:57;;;;;;;41.22;32.08;;;5.30;83.00;;;;;;5052428;28;20045;-51
2022/01/24 17:20:24;;;;;;;42.53;31.27;;;5.30;82.80;;;;;;5052492;28;20040;-49
2022/01/24 17:22:51;;;;;;;40.75;30.77;;;5.30;83.10;;;;;;5051405;28;20033;-49
2022/01/24 17:25:17;;;;;;;37.85;29.42;;;5.30;82.10;;;;;;5037188;28;20460;-50
2022/01/24 17:27:44;;;;;;;38.03;30.08;;;5.20;82.60;;;;;;5032859;28;20072;-49
2022/01/24 17:30:11;;;;;;;37.58;29.17;;;5.10;83.50;;;;;;5032378;28;20113;-48
2022/01/24 17:32:47;;;;;;;37.42;29.80;;;5.00;83.00;;;;;;5052220;28;20045;-45
2022/01/24 17:35:14;;;;;;;39.28;30.92;;;4.90;83.70;;;;;;5052320;28;20044;-48
2022/01/24 17:37:41;;;;;;;39.90;31.27;;;4.90;84.10;;;;;;5051310;28;20132;-49
2022/01/24 17:40:08;;;;;;;41.70;31.08;;;5.00;84.30;;;;;;5051904;28;20056;-48
2022/01/24 17:42:35;;;;;;;44.17;32.15;;;4.90;85.00;;;;;;5049964;28;20052;-50
2022/01/24 17:45:02;;;;;;;41.65;31.67;;;4.90;84.50;;;;;;5052322;28;20422;-49
2022/01/24 17:47:29;;;;;;;45.25;32.70;;;4.90;84.30;;;;;;5051185;28;20131;-54
2022/01/24 17:49:56;;;;;;;44.63;31.88;;;4.80;84.30;;;;;;5052009;28;20044;-50
2022/01/24 17:52:22;;;;;;;37.45;29.67;;;4.80;84.70;;;;;;5055242;28;20127;-53
2022/01/24 17:54:49;;;;;;;40.35;31.73;;;4.90;84.30;;;;;;5055491;28;20419;-52
2022/01/24 17:57:16;;;;;;;41.58;32.00;;;4.80;84.40;;;;;;5056741;28;20045;-52
2022/01/24 17:59:43;;;;;;;40.88;32.40;;;4.80;84.70;;;;;;5055987;28;20476;-54
2022/01/24 18:02:10;;;;;;;41.10;32.33;;;4.90;85.00;;;;;;5056762;28;20037;-53
2022/01/24 18:04:36;;;;;;;41.55;33.22;;;4.90;84.60;;;;;;5055666;28;20514;-50
2022/01/24 18:07:04;;;;;;;43.25;31.60;;;4.90;84.80;;;;;;5056678;28;20033;-54
2022/01/24 18:09:32;;;;;;;43.72;32.60;;;4.90;84.70;;;;;;5056573;28;20071;-53
2022/01/24 18:11:59;;;;;;;41.40;31.95;;;4.90;84.80;;;;;;5056531;28;20068;-49
2022/01/24 18:14:27;;;;;;;43.92;31.58;;;4.90;85.00;;;;;;5042224;28;20037;-50
2022/01/24 18:16:54;;;;;;;41.72;31.63;;;4.90;85.10;;;;;;5050572;28;20061;-53
2022/01/24 18:19:21;;;;;;;42.65;30.77;;;4.90;85.30;;;;;;5037356;28;20420;-49
2022/01/24 18:21:48;;;;;;;40.05;30.63;;;4.90;85.00;;;;;;5037052;28;20144;-51
2022/01/24 18:24:15;;;;;;;45.15;32.25;;;4.80;85.20;;;;;;5046393;28;20044;-51
2022/01/24 18:26:42;;;;;;;45.65;32.67;;;4.80;85.30;;;;;;5053589;28;20047;-49
2022/01/24 18:29:09;;;;;;;43.58;32.20;;;4.80;85.20;;;;;;5056384;28;20136;-50
2022/01/24 18:31:35;;;;;;;44.78;32.63;;;4.70;85.20;;;;;;5053875;28;20052;-50
2022/01/24 18:34:02;;;;;;;40.53;31.35;;;4.70;85.50;;;;;;5056345;28;20033;-49
2022/01/24 18:36:29;;;;;;;44.05;31.60;;;4.70;85.60;;;;;;5057308;28;20540;-52
2022/01/24 18:38:56;;;;;;;42.15;30.63;;;4.70;85.30;;;;;;5037123;28;20045;-54
2022/01/24 18:41:23;;;;;;;38.63;29.92;;;4.80;85.00;;;;;;5049566;28;20052;-49
2022/01/24 18:43:50;;;;;;;42.55;32.08;;;4.70;84.60;;;;;;5045120;28;20060;-48
2022/01/24 18:46:17;;;;;;;41.17;31.38;;;4.70;85.10;;;;;;5055845;28;20045;-50
2022/01/24 18:48:48;;;;;;;41.30;30.25;;;4.80;84.70;;;;;;5056045;28;20052;-51
2022/01/24 18:51:35;;;;;;;43.17;31.20;;;4.80;84.90;;;;;;5055841;28;20045;-50
2022/01/24 18:54:02;;;;;;;44.58;31.70;;;4.80;85.20;;;;;;5055872;28;20127;-53
2022/01/24 18:56:29;;;;;;;43.83;31.88;;;4.90;84.80;;;;;;5055047;28;20076;-47
2022/01/24 18:58:55;;;;;;;45.85;33.70;;;4.90;85.00;;;;;;5054907;28;20488;-47
2022/01/24 19:01:22;;;;;;;41.92;32.55;;;4.90;85.00;;;;;;5054723;28;20048;-52
2022/01/24 19:03:49;;;;;;;40.78;31.73;;;4.90;85.00;;;;;;5054389;28;20041;-49
2022/01/24 19:06:16;;;;;;;45.30;32.33;;;4.90;84.90;;;;;;5054593;28;20043;-50
2022/01/24 19:08:43;;;;;;;45.05;33.97;;;4.90;85.10;;;;;;5054774;28;20365;-51
2022/01/24 19:11:10;;;;;;;46.92;35.13;;;4.80;85.60;;;;;;5054692;28;20120;-55
2022/01/24 19:13:36;;;;;;;47.00;34.20;;;4.90;85.70;;;;;;5054739;28;20397;-47
2022/01/24 19:16:03;;;;;;;45.42;34.50;;;4.90;85.30;;;;;;5053529;28;20127;-48
2022/01/24 19:18:34;;;;;;;46.42;35.15;;;4.90;85.10;;;;;;5054412;28;20492;-51
2022/01/24 19:23:47;;;;;;;47.35;33.25;;;4.90;85.20;;;;;;5053066;28;20475;-49
2022/01/24 19:26:14;;;;;;;46.10;32.47;;;4.90;85.10;;;;;;5054409;28;20041;-48
2022/01/24 19:28:41;;;;;;;44.25;32.00;;;4.90;84.70;;;;;;5046981;28;20114;-53
2022/01/24 19:31:08;;;;;;;41.20;31.73;;;4.80;84.70;;;;;;5037765;28;20049;-54
2022/01/24 19:33:35;;;;;;;43.30;31.65;;;4.80;85.10;;;;;;5035451;28;20052;-52
2022/01/24 19:36:01;;;;;;;40.58;30.73;;;4.80;85.00;;;;;;5035415;28;20444;-52
2022/01/24 19:38:28;;;;;;;42.22;31.98;;;4.70;85.10;;;;;;5035141;28;20034;-49
2022/01/24 19:40:55;;;;;;;45.42;33.13;;;4.70;85.10;;;;;;5035112;28;20099;-53
2022/01/24 19:43:22;;;;;;;43.95;33.55;;;4.70;85.50;;;;;;5047890;28;20438;-50
2022/01/24 19:45:49;;;;;;;43.33;32.97;;;4.70;85.50;;;;;;5053671;28;20064;-51
2022/01/24 19:48:16;;;;;;;41.92;31.58;;;4.70;85.70;;;;;;5053821;28;20119;-46
2022/01/24 19:50:42;;;;;;;40.38;31.13;;;4.60;85.40;;;;;;5053800;28;20041;-49
2022/01/24 19:53:09;;;;;;;42.60;32.50;;;4.60;85.90;;;;;;5053739;28;20037;-47
2022/01/24 19:55:50;;;;;;;45.17;34.78;;;4.50;86.40;;;;;;5053765;28;20534;-51
2022/01/24 19:58:22;;;;;;;45.75;33.40;;;4.50;86.70;;;;;;5053737;28;20079;-49
2022/01/24 20:00:49;;;;;;;45.90;32.70;;;4.60;86.10;;;;;;5053570;28;20051;-51
2022/01/24 20:03:16;;;;;;;41.75;31.65;;;4.60;86.10;;;;;;5042812;28;20048;-52
2022/01/24 20:05:43;;;;;;;44.58;32.42;;;4.60;85.60;;;;;;5034431;28;20137;-47
2022/01/24 20:08:10;;;;;;;47.10;33.38;;;4.60;85.90;;;;;;5034319;28;20128;-48
2022/01/24 20:10:37;;;;;;;44.25;33.53;;;4.60;86.20;;;;;;5034336;28;20458;-48
2022/01/24 20:13:03;;;;;;;46.20;32.95;;;4.70;85.80;;;;;;5034350;28;20049;-54
2022/01/24 20:15:30;;;;;;;42.83;33.47;;;4.70;85.70;;;;;;5033907;28;20049;-53
2022/01/24 20:17:58;;;;;;;41.08;31.67;;;4.70;85.80;;;;;;5034354;28;20508;-51
2022/01/24 20:20:25;;;;;;;43.55;33.17;;;4.70;85.60;;;;;;5046757;28;20038;-52
2022/01/24 20:22:56;;;;;;;43.17;33.67;;;4.60;85.90;;;;;;5051661;28;20137;-49
2022/01/24 20:25:22;;;;;;;44.47;33.38;;;4.60;85.80;;;;;;5053443;28;20037;-54
2022/01/24 20:27:49;;;;;;;51.17;35.03;;;4.60;86.30;;;;;;5036900;28;20052;-54
2022/01/24 20:30:17;;;;;;;43.78;33.15;;;4.60;86.10;;;;;;5048929;28;20501;-53
2022/01/24 20:32:44;;;;;;;44.15;33.30;;;4.60;85.90;;;;;;5049677;28;20045;-47
2022/01/24 20:35:11;;;;;;;42.55;33.10;;;4.50;86.50;;;;;;5053281;28;20036;-50
2022/01/24 20:37:38;;;;;;;44.42;34.15;;;4.50;86.70;;;;;;5053071;28;20102;-51
2022/01/24 20:40:06;;;;;;;47.42;34.65;;;4.50;86.50;;;;;;5053100;28;20036;-54
2022/01/24 20:42:33;;;;;;;45.38;34.60;;;4.50;86.50;;;;;;5052910;28;20037;-52
2022/01/24 20:45:00;;;;;;;44.00;33.92;;;4.60;86.80;;;;;;5052961;28;20449;-49
2022/01/24 20:47:27;;;;;;;46.90;35.13;;;4.60;86.70;;;;;;5052831;28;20108;-50
2022/01/24 20:49:53;;;;;;;42.50;32.83;;;4.60;86.50;;;;;;5052762;28;20033;-50
2022/01/24 20:52:20;;;;;;;49.08;34.00;;;4.60;86.60;;;;;;5052854;28;20123;-49
2022/01/24 20:54:47;;;;;;;44.75;34.33;;;4.60;86.60;;;;;;5034738;28;20464;-51
2022/01/24 20:57:14;;;;;;;45.72;34.88;;;4.60;86.50;;;;;;5033564;28;20503;-49
2022/01/24 20:59:41;;;;;;;50.70;35.28;;;4.70;86.40;;;;;;5033637;28;20462;-51
2022/01/24 21:02:07;;;;;;;48.20;34.83;;;4.70;86.50;;;;;;5044177;28;20474;-48
2022/01/24 21:04:35;;;;;;;46.03;34.53;;;4.70;86.70;;;;;;5034815;28;20038;-46
2022/01/24 21:07:01;;;;;;;45.97;34.28;;;4.70;86.30;;;;;;5031813;28;20045;-53